sensor_id;sensor_type;location;lat;lon;timestamp;P1;durP1;ratioP1;P2;durP2;ratioP2
15476;SDS011;7840;42.702;23.296;2022-10-31T00:01:27;8.10;;;4.68;;
15476;SDS011;7840;42.702;23.296;2022-10-31T00:03:56;6.10;;;4.47;;
15476;SDS011;7840;42.702;23.296;2022-10-31T00:06:24;5.10;;;3.72;;
15476;SDS011;7840;42.702;23.296;2022-10-31T00:08:55;5.65;;;4.68;;
15476;SDS011;7840;42.702;23.296;2022-10-31T00:11:25;8.43;;;5.22;;
15476;SDS011;7840;42.702;23.296;2022-10-31T00:13:53;8.80;;;5.25;;
15476;SDS011;7840;42.702;23.296;2022-10-31T00:16:22;7.72;;;5.28;;
15476;SDS011;7840;42.702;23.296;2022-10-31T00:18:50;7.53;;;5.20;;
15476;SDS011;7840;42.702;23.296;2022-10-31T00:21:19;8.10;;;4.88;;
15476;SDS011;7840;42.702;23.296;2022-10-31T00:23:48;10.50;;;5.10;;
15476;SDS011;7840;42.702;23.296;2022-10-31T00:26:17;7.07;;;4.93;;
15476;SDS011;7840;42.702;23.296;2022-10-31T00:28:44;11.07;;;4.88;;
15476;SDS011;7840;42.702;23.296;2022-10-31T00:31:12;6.18;;;5.05;;
15476;SDS011;7840;42.702;23.296;2022-10-31T00:33:41;6.43;;;4.85;;
15476;SDS011;7840;42.702;23.296;2022-10-31T00:36:11;7.43;;;5.38;;
15476;SDS011;7840;42.702;23.296;2022-10-31T00:38:40;6.43;;;4.43;;
15476;SDS011;7840;42.702;23.296;2022-10-31T00:41:09;5.57;;;3.97;;
15476;SDS011;7840;42.702;23.296;2022-10-31T00:43:38;8.60;;;5.03;;
15476;SDS011;7840;42.702;23.296;2022-10-31T00:46:06;6.55;;;4.70;;
15476;SDS011;7840;42.702;23.296;2022-10-31T00:48:33;6.47;;;4.53;;
15476;SDS011;7840;42.702;23.296;2022-10-31T00:51:01;7.18;;;4.28;;
15476;SDS011;7840;42.702;23.296;2022-10-31T00:53:31;8.48;;;4.28;;
15476;SDS011;7840;42.702;23.296;2022-10-31T00:55:59;7.18;;;4.18;;
15476;SDS011;7840;42.702;23.296;2022-10-31T00:58:27;6.38;;;4.05;;
15476;SDS011;7840;42.702;23.296;2022-10-31T01:00:56;6.40;;;4.50;;
15476;SDS011;7840;42.702;23.296;2022-10-31T01:03:24;6.15;;;4.43;;
15476;SDS011;7840;42.702;23.296;2022-10-31T01:05:56;5.03;;;4.35;;
15476;SDS011;7840;42.702;23.296;2022-10-31T01:08:25;8.57;;;4.78;;
15476;SDS011;7840;42.702;23.296;2022-10-31T01:11:09;5.57;;;4.45;;
15476;SDS011;7840;42.702;23.296;2022-10-31T01:13:39;6.18;;;4.32;;
15476;SDS011;7840;42.702;23.296;2022-10-31T01:16:10;6.05;;;4.57;;
15476;SDS011;7840;42.702;23.296;2022-10-31T01:18:39;6.32;;;4.00;;
15476;SDS011;7840;42.702;23.296;2022-10-31T01:21:08;7.13;;;4.03;;
15476;SDS011;7840;42.702;23.296;2022-10-31T01:23:37;5.22;;;3.95;;
15476;SDS011;7840;42.702;23.296;2022-10-31T01:26:06;7.18;;;4.22;;
15476;SDS011;7840;42.702;23.296;2022-10-31T01:28:35;5.25;;;3.83;;
15476;SDS011;7840;42.702;23.296;2022-10-31T01:31:05;7.43;;;4.05;;
15476;SDS011;7840;42.702;23.296;2022-10-31T01:33:37;6.38;;;4.25;;
15476;SDS011;7840;42.702;23.296;2022-10-31T01:36:11;6.28;;;4.22;;
15476;SDS011;7840;42.702;23.296;2022-10-31T01:38:55;8.07;;;4.90;;
15476;SDS011;7840;42.702;23.296;2022-10-31T01:41:28;7.85;;;4.25;;
15476;SDS011;7840;42.702;23.296;2022-10-31T01:43:58;7.03;;;4.57;;
15476;SDS011;7840;42.702;23.296;2022-10-31T01:46:29;6.10;;;4.63;;
15476;SDS011;7840;42.702;23.296;2022-10-31T01:49:02;6.25;;;4.43;;
15476;SDS011;7840;42.702;23.296;2022-10-31T01:51:36;7.80;;;4.88;;
15476;SDS011;7840;42.702;23.296;2022-10-31T01:54:09;10.50;;;5.03;;
15476;SDS011;7840;42.702;23.296;2022-10-31T01:56:46;9.20;;;5.38;;
15476;SDS011;7840;42.702;23.296;2022-10-31T01:59:17;6.00;;;4.72;;
15476;SDS011;7840;42.702;23.296;2022-10-31T02:01:48;7.30;;;4.78;;
15476;SDS011;7840;42.702;23.296;2022-10-31T02:04:21;5.68;;;4.50;;
15476;SDS011;7840;42.702;23.296;2022-10-31T02:06:52;6.97;;;4.55;;
15476;SDS011;7840;42.702;23.296;2022-10-31T02:09:23;8.60;;;5.22;;
15476;SDS011;7840;42.702;23.296;2022-10-31T02:11:51;6.32;;;5.03;;
15476;SDS011;7840;42.702;23.296;2022-10-31T02:14:22;9.25;;;4.53;;
15476;SDS011;7840;42.702;23.296;2022-10-31T02:16:51;6.78;;;5.25;;
15476;SDS011;7840;42.702;23.296;2022-10-31T02:19:39;6.80;;;5.35;;
15476;SDS011;7840;42.702;23.296;2022-10-31T02:22:15;6.63;;;5.05;;
15476;SDS011;7840;42.702;23.296;2022-10-31T02:24:53;6.95;;;5.28;;
15476;SDS011;7840;42.702;23.296;2022-10-31T02:27:46;7.97;;;5.38;;
15476;SDS011;7840;42.702;23.296;2022-10-31T02:30:36;6.55;;;5.45;;
15476;SDS011;7840;42.702;23.296;2022-10-31T02:33:17;9.45;;;6.45;;
15476;SDS011;7840;42.702;23.296;2022-10-31T02:35:52;9.38;;;6.60;;
15476;SDS011;7840;42.702;23.296;2022-10-31T02:38:30;11.52;;;7.07;;
15476;SDS011;7840;42.702;23.296;2022-10-31T02:41:07;11.85;;;7.18;;
15476;SDS011;7840;42.702;23.296;2022-10-31T02:43:41;10.82;;;8.02;;
15476;SDS011;7840;42.702;23.296;2022-10-31T02:46:17;8.80;;;7.22;;
15476;SDS011;7840;42.702;23.296;2022-10-31T02:48:52;10.57;;;6.93;;
15476;SDS011;7840;42.702;23.296;2022-10-31T02:51:26;11.60;;;8.05;;
15476;SDS011;7840;42.702;23.296;2022-10-31T02:53:54;9.82;;;6.65;;
15476;SDS011;7840;42.702;23.296;2022-10-31T02:56:24;8.93;;;6.65;;
15476;SDS011;7840;42.702;23.296;2022-10-31T02:58:52;8.05;;;6.45;;
15476;SDS011;7840;42.702;23.296;2022-10-31T03:01:40;9.32;;;7.28;;
15476;SDS011;7840;42.702;23.296;2022-10-31T03:04:34;8.75;;;7.43;;
15476;SDS011;7840;42.702;23.296;2022-10-31T03:07:31;12.00;;;7.72;;
15476;SDS011;7840;42.702;23.296;2022-10-31T03:10:10;8.50;;;6.70;;
15476;SDS011;7840;42.702;23.296;2022-10-31T03:12:46;11.95;;;6.60;;
15476;SDS011;7840;42.702;23.296;2022-10-31T03:15:25;13.13;;;7.18;;
15476;SDS011;7840;42.702;23.296;2022-10-31T03:17:57;12.63;;;6.90;;
15476;SDS011;7840;42.702;23.296;2022-10-31T03:20:45;11.15;;;6.93;;
15476;SDS011;7840;42.702;23.296;2022-10-31T03:23:34;12.27;;;7.45;;
15476;SDS011;7840;42.702;23.296;2022-10-31T03:26:11;11.10;;;7.53;;
15476;SDS011;7840;42.702;23.296;2022-10-31T03:28:42;12.57;;;7.10;;
15476;SDS011;7840;42.702;23.296;2022-10-31T03:31:13;13.50;;;7.70;;
15476;SDS011;7840;42.702;23.296;2022-10-31T03:33:44;9.80;;;7.35;;
15476;SDS011;7840;42.702;23.296;2022-10-31T03:36:16;10.93;;;7.28;;
15476;SDS011;7840;42.702;23.296;2022-10-31T03:38:45;10.00;;;7.60;;
15476;SDS011;7840;42.702;23.296;2022-10-31T03:41:15;11.37;;;7.50;;
15476;SDS011;7840;42.702;23.296;2022-10-31T03:43:47;9.13;;;7.00;;
15476;SDS011;7840;42.702;23.296;2022-10-31T03:46:21;9.83;;;7.17;;
15476;SDS011;7840;42.702;23.296;2022-10-31T03:48:49;11.67;;;7.87;;
15476;SDS011;7840;42.702;23.296;2022-10-31T03:51:21;14.30;;;7.33;;
15476;SDS011;7840;42.702;23.296;2022-10-31T03:53:52;11.63;;;7.73;;
15476;SDS011;7840;42.702;23.296;2022-10-31T03:56:26;7.83;;;6.93;;
15476;SDS011;7840;42.702;23.296;2022-10-31T03:59:07;12.00;;;8.50;;
15476;SDS011;7840;42.702;23.296;2022-10-31T04:01:40;9.80;;;7.73;;
15476;SDS011;7840;42.702;23.296;2022-10-31T04:04:13;13.70;;;8.07;;
15476;SDS011;7840;42.702;23.296;2022-10-31T04:06:43;10.33;;;8.17;;
15476;SDS011;7840;42.702;23.296;2022-10-31T04:09:12;9.50;;;7.50;;
15476;SDS011;7840;42.702;23.296;2022-10-31T04:11:43;10.43;;;7.97;;
15476;SDS011;7840;42.702;23.296;2022-10-31T04:14:21;9.33;;;8.00;;
15476;SDS011;7840;42.702;23.296;2022-10-31T04:16:54;9.97;;;8.27;;
15476;SDS011;7840;42.702;23.296;2022-10-31T04:19:26;11.77;;;8.00;;
15476;SDS011;7840;42.702;23.296;2022-10-31T04:21:55;14.40;;;8.57;;
15476;SDS011;7840;42.702;23.296;2022-10-31T04:24:23;10.57;;;8.43;;
15476;SDS011;7840;42.702;23.296;2022-10-31T04:26:51;13.03;;;8.47;;
15476;SDS011;7840;42.702;23.296;2022-10-31T04:29:18;9.63;;;8.00;;
15476;SDS011;7840;42.702;23.296;2022-10-31T04:31:46;12.03;;;8.00;;
15476;SDS011;7840;42.702;23.296;2022-10-31T04:34:14;13.37;;;8.60;;
15476;SDS011;7840;42.702;23.296;2022-10-31T04:36:42;13.33;;;8.57;;
15476;SDS011;7840;42.702;23.296;2022-10-31T04:39:11;13.37;;;8.90;;
15476;SDS011;7840;42.702;23.296;2022-10-31T04:41:38;11.50;;;8.93;;
15476;SDS011;7840;42.702;23.296;2022-10-31T04:44:06;12.30;;;9.60;;
15476;SDS011;7840;42.702;23.296;2022-10-31T04:46:34;12.53;;;9.73;;
15476;SDS011;7840;42.702;23.296;2022-10-31T04:49:04;10.13;;;8.50;;
15476;SDS011;7840;42.702;23.296;2022-10-31T04:51:32;13.50;;;8.90;;
15476;SDS011;7840;42.702;23.296;2022-10-31T04:54:00;12.87;;;10.10;;
15476;SDS011;7840;42.702;23.296;2022-10-31T04:56:29;17.13;;;10.87;;
15476;SDS011;7840;42.702;23.296;2022-10-31T04:58:56;13.77;;;10.43;;
15476;SDS011;7840;42.702;23.296;2022-10-31T05:01:24;14.33;;;10.03;;
15476;SDS011;7840;42.702;23.296;2022-10-31T05:03:53;17.83;;;10.10;;
15476;SDS011;7840;42.702;23.296;2022-10-31T05:06:20;15.53;;;10.17;;
15476;SDS011;7840;42.702;23.296;2022-10-31T05:08:48;17.07;;;9.43;;
15476;SDS011;7840;42.702;23.296;2022-10-31T05:11:16;15.13;;;10.07;;
15476;SDS011;7840;42.702;23.296;2022-10-31T05:13:45;14.37;;;10.30;;
15476;SDS011;7840;42.702;23.296;2022-10-31T05:16:18;17.60;;;10.47;;
15476;SDS011;7840;42.702;23.296;2022-10-31T05:18:46;13.10;;;10.07;;
15476;SDS011;7840;42.702;23.296;2022-10-31T05:21:14;12.47;;;10.23;;
15476;SDS011;7840;42.702;23.296;2022-10-31T05:23:41;16.07;;;10.43;;
15476;SDS011;7840;42.702;23.296;2022-10-31T05:26:09;16.87;;;11.30;;
15476;SDS011;7840;42.702;23.296;2022-10-31T05:28:37;16.13;;;9.93;;
15476;SDS011;7840;42.702;23.296;2022-10-31T05:33:50;17.30;;;11.67;;
15476;SDS011;7840;42.702;23.296;2022-10-31T05:36:18;18.93;;;11.70;;
15476;SDS011;7840;42.702;23.296;2022-10-31T05:38:46;15.50;;;10.87;;
15476;SDS011;7840;42.702;23.296;2022-10-31T05:41:13;18.03;;;11.37;;
15476;SDS011;7840;42.702;23.296;2022-10-31T05:43:41;17.77;;;11.20;;
15476;SDS011;7840;42.702;23.296;2022-10-31T05:46:09;17.33;;;11.63;;
15476;SDS011;7840;42.702;23.296;2022-10-31T05:48:38;20.73;;;11.87;;
15476;SDS011;7840;42.702;23.296;2022-10-31T05:51:05;21.13;;;11.43;;
15476;SDS011;7840;42.702;23.296;2022-10-31T05:53:33;19.77;;;12.13;;
15476;SDS011;7840;42.702;23.296;2022-10-31T05:56:04;16.07;;;12.27;;
15476;SDS011;7840;42.702;23.296;2022-10-31T05:58:32;17.37;;;11.27;;
15476;SDS011;7840;42.702;23.296;2022-10-31T06:00:59;17.83;;;11.20;;
15476;SDS011;7840;42.702;23.296;2022-10-31T06:03:27;14.27;;;11.00;;
15476;SDS011;7840;42.702;23.296;2022-10-31T06:05:56;16.10;;;11.60;;
15476;SDS011;7840;42.702;23.296;2022-10-31T06:08:24;19.40;;;12.48;;
15476;SDS011;7840;42.702;23.296;2022-10-31T06:10:52;18.02;;;11.85;;
15476;SDS011;7840;42.702;23.296;2022-10-31T06:13:20;20.05;;;11.63;;
15476;SDS011;7840;42.702;23.296;2022-10-31T06:15:48;20.17;;;11.15;;
15476;SDS011;7840;42.702;23.296;2022-10-31T06:18:16;14.80;;;10.85;;
15476;SDS011;7840;42.702;23.296;2022-10-31T06:20:43;23.00;;;12.45;;
15476;SDS011;7840;42.702;23.296;2022-10-31T06:25:55;16.88;;;11.00;;
15476;SDS011;7840;42.702;23.296;2022-10-31T06:28:23;18.50;;;10.35;;
15476;SDS011;7840;42.702;23.296;2022-10-31T06:30:51;16.33;;;10.27;;
15476;SDS011;7840;42.702;23.296;2022-10-31T06:33:19;14.73;;;9.65;;
15476;SDS011;7840;42.702;23.296;2022-10-31T06:35:46;21.08;;;11.70;;
15476;SDS011;7840;42.702;23.296;2022-10-31T06:38:14;15.80;;;10.75;;
15476;SDS011;7840;42.702;23.296;2022-10-31T06:40:43;15.23;;;11.38;;
15476;SDS011;7840;42.702;23.296;2022-10-31T06:43:11;14.38;;;10.40;;
15476;SDS011;7840;42.702;23.296;2022-10-31T06:45:39;23.38;;;12.27;;
15476;SDS011;7840;42.702;23.296;2022-10-31T06:48:07;17.33;;;12.00;;
15476;SDS011;7840;42.702;23.296;2022-10-31T06:50:37;15.63;;;11.38;;
15476;SDS011;7840;42.702;23.296;2022-10-31T06:53:04;16.40;;;11.93;;
15476;SDS011;7840;42.702;23.296;2022-10-31T06:55:32;18.40;;;11.52;;
15476;SDS011;7840;42.702;23.296;2022-10-31T06:58:01;14.85;;;11.93;;
15476;SDS011;7840;42.702;23.296;2022-10-31T07:00:33;19.23;;;12.02;;
15476;SDS011;7840;42.702;23.296;2022-10-31T07:03:04;19.70;;;12.25;;
15476;SDS011;7840;42.702;23.296;2022-10-31T07:05:32;23.13;;;13.20;;
15476;SDS011;7840;42.702;23.296;2022-10-31T07:08:01;15.10;;;11.50;;
15476;SDS011;7840;42.702;23.296;2022-10-31T07:10:30;18.35;;;12.88;;
15476;SDS011;7840;42.702;23.296;2022-10-31T07:13:01;20.73;;;13.50;;
15476;SDS011;7840;42.702;23.296;2022-10-31T07:15:32;14.45;;;12.45;;
15476;SDS011;7840;42.702;23.296;2022-10-31T07:18:12;23.73;;;13.25;;
15476;SDS011;7840;42.702;23.296;2022-10-31T07:20:42;15.88;;;12.48;;
15476;SDS011;7840;42.702;23.296;2022-10-31T07:23:10;14.90;;;12.40;;
15476;SDS011;7840;42.702;23.296;2022-10-31T07:25:41;18.38;;;12.88;;
15476;SDS011;7840;42.702;23.296;2022-10-31T07:28:11;15.93;;;12.95;;
15476;SDS011;7840;42.702;23.296;2022-10-31T07:30:49;15.40;;;12.77;;
15476;SDS011;7840;42.702;23.296;2022-10-31T07:33:40;18.13;;;13.57;;
15476;SDS011;7840;42.702;23.296;2022-10-31T07:36:10;19.00;;;13.80;;
15476;SDS011;7840;42.702;23.296;2022-10-31T07:38:38;16.65;;;13.68;;
15476;SDS011;7840;42.702;23.296;2022-10-31T07:41:06;20.38;;;13.20;;
15476;SDS011;7840;42.702;23.296;2022-10-31T07:43:36;20.00;;;14.07;;
15476;SDS011;7840;42.702;23.296;2022-10-31T07:46:04;19.10;;;14.10;;
15476;SDS011;7840;42.702;23.296;2022-10-31T07:48:32;20.40;;;12.82;;
15476;SDS011;7840;42.702;23.296;2022-10-31T07:51:21;19.30;;;13.43;;
15476;SDS011;7840;42.702;23.296;2022-10-31T07:54:01;20.15;;;13.88;;
15476;SDS011;7840;42.702;23.296;2022-10-31T07:56:29;20.65;;;14.02;;
15476;SDS011;7840;42.702;23.296;2022-10-31T07:58:58;18.45;;;13.57;;
15476;SDS011;7840;42.702;23.296;2022-10-31T08:01:27;16.10;;;14.05;;
15476;SDS011;7840;42.702;23.296;2022-10-31T08:03:54;19.35;;;13.80;;
15476;SDS011;7840;42.702;23.296;2022-10-31T08:06:22;21.00;;;14.52;;
15476;SDS011;7840;42.702;23.296;2022-10-31T08:08:50;17.42;;;13.85;;
15476;SDS011;7840;42.702;23.296;2022-10-31T08:11:18;19.98;;;14.68;;
15476;SDS011;7840;42.702;23.296;2022-10-31T08:13:46;19.52;;;14.63;;
15476;SDS011;7840;42.702;23.296;2022-10-31T08:16:18;17.17;;;14.70;;
15476;SDS011;7840;42.702;23.296;2022-10-31T08:18:45;21.25;;;14.00;;
15476;SDS011;7840;42.702;23.296;2022-10-31T08:21:13;21.20;;;14.10;;
15476;SDS011;7840;42.702;23.296;2022-10-31T08:23:42;19.23;;;14.32;;
15476;SDS011;7840;42.702;23.296;2022-10-31T08:26:13;14.98;;;13.30;;
15476;SDS011;7840;42.702;23.296;2022-10-31T08:28:41;16.55;;;13.88;;
15476;SDS011;7840;42.702;23.296;2022-10-31T08:31:10;14.18;;;12.65;;
15476;SDS011;7840;42.702;23.296;2022-10-31T08:33:58;14.27;;;12.40;;
15476;SDS011;7840;42.702;23.296;2022-10-31T08:36:27;16.73;;;11.70;;
15476;SDS011;7840;42.702;23.296;2022-10-31T08:38:56;18.08;;;12.60;;
15476;SDS011;7840;42.702;23.296;2022-10-31T08:41:24;18.45;;;11.98;;
15476;SDS011;7840;42.702;23.296;2022-10-31T08:46:37;17.30;;;12.68;;
15476;SDS011;7840;42.702;23.296;2022-10-31T08:49:06;17.08;;;12.30;;
15476;SDS011;7840;42.702;23.296;2022-10-31T08:51:47;16.48;;;12.65;;
15476;SDS011;7840;42.702;23.296;2022-10-31T08:54:15;19.40;;;11.55;;
15476;SDS011;7840;42.702;23.296;2022-10-31T08:56:45;18.25;;;11.93;;
15476;SDS011;7840;42.702;23.296;2022-10-31T08:59:13;14.60;;;11.82;;
15476;SDS011;7840;42.702;23.296;2022-10-31T09:01:40;17.67;;;10.55;;
15476;SDS011;7840;42.702;23.296;2022-10-31T09:04:09;12.27;;;10.55;;
15476;SDS011;7840;42.702;23.296;2022-10-31T09:06:37;12.82;;;10.40;;
15476;SDS011;7840;42.702;23.296;2022-10-31T09:09:04;13.13;;;9.73;;
15476;SDS011;7840;42.702;23.296;2022-10-31T09:11:32;17.02;;;11.60;;
15476;SDS011;7840;42.702;23.296;2022-10-31T09:14:00;15.07;;;11.63;;
15476;SDS011;7840;42.702;23.296;2022-10-31T09:16:30;14.35;;;11.15;;
15476;SDS011;7840;42.702;23.296;2022-10-31T09:19:00;15.07;;;10.10;;
15476;SDS011;7840;42.702;23.296;2022-10-31T09:21:36;12.52;;;9.93;;
15476;SDS011;7840;42.702;23.296;2022-10-31T09:24:05;12.63;;;10.20;;
15476;SDS011;7840;42.702;23.296;2022-10-31T09:26:33;16.83;;;10.57;;
15476;SDS011;7840;42.702;23.296;2022-10-31T09:29:00;13.38;;;9.32;;
15476;SDS011;7840;42.702;23.296;2022-10-31T09:31:28;13.48;;;9.32;;
15476;SDS011;7840;42.702;23.296;2022-10-31T09:33:56;16.63;;;10.05;;
15476;SDS011;7840;42.702;23.296;2022-10-31T09:36:25;20.38;;;9.57;;
15476;SDS011;7840;42.702;23.296;2022-10-31T09:38:56;10.43;;;8.82;;
15476;SDS011;7840;42.702;23.296;2022-10-31T09:41:24;13.02;;;9.32;;
15476;SDS011;7840;42.702;23.296;2022-10-31T09:44:17;12.18;;;9.20;;
15476;SDS011;7840;42.702;23.296;2022-10-31T09:46:58;11.00;;;9.15;;
15476;SDS011;7840;42.702;23.296;2022-10-31T09:49:49;9.90;;;8.38;;
15476;SDS011;7840;42.702;23.296;2022-10-31T09:53:05;11.48;;;8.13;;
15476;SDS011;7840;42.702;23.296;2022-10-31T09:55:43;11.35;;;7.65;;
15476;SDS011;7840;42.702;23.296;2022-10-31T09:58:13;11.60;;;6.85;;
15476;SDS011;7840;42.702;23.296;2022-10-31T10:00:45;9.60;;;7.60;;
15476;SDS011;7840;42.702;23.296;2022-10-31T10:03:17;13.15;;;8.50;;
15476;SDS011;7840;42.702;23.296;2022-10-31T10:05:56;11.75;;;7.28;;
15476;SDS011;7840;42.702;23.296;2022-10-31T10:08:30;14.18;;;6.75;;
15476;SDS011;7840;42.702;23.296;2022-10-31T10:11:02;10.60;;;7.03;;
15476;SDS011;7840;42.702;23.296;2022-10-31T10:13:46;10.38;;;7.82;;
15476;SDS011;7840;42.702;23.296;2022-10-31T10:16:42;15.32;;;7.00;;
15476;SDS011;7840;42.702;23.296;2022-10-31T10:19:33;10.45;;;6.63;;
15476;SDS011;7840;42.702;23.296;2022-10-31T10:22:52;9.63;;;6.00;;
15476;SDS011;7840;42.702;23.296;2022-10-31T10:25:28;10.48;;;7.10;;
15476;SDS011;7840;42.702;23.296;2022-10-31T10:28:08;12.13;;;6.18;;
15476;SDS011;7840;42.702;23.296;2022-10-31T10:30:44;9.93;;;6.57;;
15476;SDS011;7840;42.702;23.296;2022-10-31T10:33:18;10.73;;;6.78;;
15476;SDS011;7840;42.702;23.296;2022-10-31T10:35:49;13.20;;;6.72;;
15476;SDS011;7840;42.702;23.296;2022-10-31T10:38:22;12.23;;;7.25;;
15476;SDS011;7840;42.702;23.296;2022-10-31T10:40:54;9.52;;;5.97;;
15476;SDS011;7840;42.702;23.296;2022-10-31T10:43:54;11.10;;;5.82;;
15476;SDS011;7840;42.702;23.296;2022-10-31T10:46:29;10.50;;;5.15;;
15476;SDS011;7840;42.702;23.296;2022-10-31T10:49:42;7.20;;;5.15;;
15476;SDS011;7840;42.702;23.296;2022-10-31T10:52:40;8.10;;;5.90;;
15476;SDS011;7840;42.702;23.296;2022-10-31T10:55:16;7.65;;;4.88;;
15476;SDS011;7840;42.702;23.296;2022-10-31T10:57:55;8.20;;;4.95;;
15476;SDS011;7840;42.702;23.296;2022-10-31T11:00:26;8.40;;;4.65;;
15476;SDS011;7840;42.702;23.296;2022-10-31T11:02:56;7.85;;;4.40;;
15476;SDS011;7840;42.702;23.296;2022-10-31T11:05:26;12.35;;;3.90;;
15476;SDS011;7840;42.702;23.296;2022-10-31T11:08:06;4.55;;;3.60;;
15476;SDS011;7840;42.702;23.296;2022-10-31T11:10:37;8.98;;;3.85;;
15476;SDS011;7840;42.702;23.296;2022-10-31T11:13:17;4.90;;;3.38;;
15476;SDS011;7840;42.702;23.296;2022-10-31T11:19:26;8.45;;;4.22;;
15476;SDS011;7840;42.702;23.296;2022-10-31T11:22:26;7.88;;;3.97;;
15476;SDS011;7840;42.702;23.296;2022-10-31T11:24:53;6.78;;;3.88;;
15476;SDS011;7840;42.702;23.296;2022-10-31T11:27:25;6.20;;;3.65;;
15476;SDS011;7840;42.702;23.296;2022-10-31T11:30:03;7.25;;;3.70;;
15476;SDS011;7840;42.702;23.296;2022-10-31T11:32:59;5.95;;;3.55;;
15476;SDS011;7840;42.702;23.296;2022-10-31T11:35:37;8.35;;;3.45;;
15476;SDS011;7840;42.702;23.296;2022-10-31T11:38:21;10.00;;;3.88;;
15476;SDS011;7840;42.702;23.296;2022-10-31T11:40:57;10.82;;;4.15;;
15476;SDS011;7840;42.702;23.296;2022-10-31T11:43:45;5.10;;;3.22;;
15476;SDS011;7840;42.702;23.296;2022-10-31T11:46:18;6.40;;;3.70;;
15476;SDS011;7840;42.702;23.296;2022-10-31T11:49:11;10.88;;;4.03;;
15476;SDS011;7840;42.702;23.296;2022-10-31T11:51:46;6.53;;;3.90;;
15476;SDS011;7840;42.702;23.296;2022-10-31T11:54:20;8.52;;;3.90;;
15476;SDS011;7840;42.702;23.296;2022-10-31T11:56:52;6.90;;;3.58;;
15476;SDS011;7840;42.702;23.296;2022-10-31T11:59:24;5.18;;;3.70;;
15476;SDS011;7840;42.702;23.296;2022-10-31T12:02:14;6.05;;;3.88;;
15476;SDS011;7840;42.702;23.296;2022-10-31T12:04:46;5.20;;;3.92;;
15476;SDS011;7840;42.702;23.296;2022-10-31T12:07:24;6.07;;;3.75;;
15476;SDS011;7840;42.702;23.296;2022-10-31T12:10:09;6.75;;;3.58;;
15476;SDS011;7840;42.702;23.296;2022-10-31T12:12:49;5.82;;;3.67;;
15476;SDS011;7840;42.702;23.296;2022-10-31T12:15:29;8.25;;;3.80;;
15476;SDS011;7840;42.702;23.296;2022-10-31T12:21:12;5.85;;;3.92;;
15476;SDS011;7840;42.702;23.296;2022-10-31T12:23:57;7.00;;;4.32;;
15476;SDS011;7840;42.702;23.296;2022-10-31T12:26:38;5.93;;;4.15;;
15476;SDS011;7840;42.702;23.296;2022-10-31T12:29:20;9.48;;;4.30;;
15476;SDS011;7840;42.702;23.296;2022-10-31T12:32:15;9.18;;;4.70;;
15476;SDS011;7840;42.702;23.296;2022-10-31T12:34:59;8.93;;;4.20;;
15476;SDS011;7840;42.702;23.296;2022-10-31T12:38:10;7.70;;;4.45;;
15476;SDS011;7840;42.702;23.296;2022-10-31T12:41:10;9.27;;;4.63;;
15476;SDS011;7840;42.702;23.296;2022-10-31T12:44:02;7.18;;;3.92;;
15476;SDS011;7840;42.702;23.296;2022-10-31T12:46:48;11.57;;;4.43;;
15476;SDS011;7840;42.702;23.296;2022-10-31T12:49:31;8.13;;;4.32;;
15476;SDS011;7840;42.702;23.296;2022-10-31T12:52:19;10.82;;;4.00;;
15476;SDS011;7840;42.702;23.296;2022-10-31T12:55:08;12.35;;;4.68;;
15476;SDS011;7840;42.702;23.296;2022-10-31T12:57:50;9.35;;;4.15;;
15476;SDS011;7840;42.702;23.296;2022-10-31T13:00:23;10.00;;;4.20;;
15476;SDS011;7840;42.702;23.296;2022-10-31T13:03:14;7.45;;;4.28;;
15476;SDS011;7840;42.702;23.296;2022-10-31T13:06:02;7.32;;;3.60;;
15476;SDS011;7840;42.702;23.296;2022-10-31T13:08:35;7.75;;;4.57;;
15476;SDS011;7840;42.702;23.296;2022-10-31T13:11:08;7.40;;;4.32;;
15476;SDS011;7840;42.702;23.296;2022-10-31T13:13:44;8.85;;;4.72;;
15476;SDS011;7840;42.702;23.296;2022-10-31T13:16:18;7.18;;;3.58;;
15476;SDS011;7840;42.702;23.296;2022-10-31T13:18:52;6.95;;;4.03;;
15476;SDS011;7840;42.702;23.296;2022-10-31T13:21:25;7.25;;;4.50;;
15476;SDS011;7840;42.702;23.296;2022-10-31T13:24:10;12.07;;;4.32;;
15476;SDS011;7840;42.702;23.296;2022-10-31T13:26:43;7.22;;;4.13;;
15476;SDS011;7840;42.702;23.296;2022-10-31T13:29:17;8.65;;;4.30;;
15476;SDS011;7840;42.702;23.296;2022-10-31T13:31:50;9.07;;;4.22;;
15476;SDS011;7840;42.702;23.296;2022-10-31T13:34:25;10.13;;;4.30;;
15476;SDS011;7840;42.702;23.296;2022-10-31T13:37:05;5.82;;;4.22;;
15476;SDS011;7840;42.702;23.296;2022-10-31T13:39:44;7.95;;;3.70;;
15476;SDS011;7840;42.702;23.296;2022-10-31T13:42:32;8.55;;;3.60;;
15476;SDS011;7840;42.702;23.296;2022-10-31T13:45:13;6.07;;;3.92;;
15476;SDS011;7840;42.702;23.296;2022-10-31T13:48:00;6.68;;;4.20;;
15476;SDS011;7840;42.702;23.296;2022-10-31T13:50:58;7.30;;;3.67;;
15476;SDS011;7840;42.702;23.296;2022-10-31T13:53:35;5.40;;;3.70;;
15476;SDS011;7840;42.702;23.296;2022-10-31T13:56:25;6.68;;;4.45;;
15476;SDS011;7840;42.702;23.296;2022-10-31T13:58:59;11.15;;;4.57;;
15476;SDS011;7840;42.702;23.296;2022-10-31T14:01:32;8.88;;;4.53;;
15476;SDS011;7840;42.702;23.296;2022-10-31T14:04:03;9.15;;;4.20;;
15476;SDS011;7840;42.702;23.296;2022-10-31T14:06:39;7.95;;;3.90;;
15476;SDS011;7840;42.702;23.296;2022-10-31T14:09:25;5.55;;;3.28;;
15476;SDS011;7840;42.702;23.296;2022-10-31T14:11:56;9.45;;;4.13;;
15476;SDS011;7840;42.702;23.296;2022-10-31T14:14:39;6.45;;;3.40;;
15476;SDS011;7840;42.702;23.296;2022-10-31T14:17:28;10.95;;;3.33;;
15476;SDS011;7840;42.702;23.296;2022-10-31T14:20:24;11.68;;;3.03;;
15476;SDS011;7840;42.702;23.296;2022-10-31T14:22:58;6.50;;;3.78;;
15476;SDS011;7840;42.702;23.296;2022-10-31T14:25:41;11.18;;;3.92;;
15476;SDS011;7840;42.702;23.296;2022-10-31T14:28:19;8.70;;;3.83;;
15476;SDS011;7840;42.702;23.296;2022-10-31T14:33:59;14.77;;;5.13;;
15476;SDS011;7840;42.702;23.296;2022-10-31T14:36:40;10.00;;;3.83;;
15476;SDS011;7840;42.702;23.296;2022-10-31T14:39:17;15.82;;;4.47;;
15476;SDS011;7840;42.702;23.296;2022-10-31T14:41:55;13.40;;;4.65;;
15476;SDS011;7840;42.702;23.296;2022-10-31T14:48:00;7.38;;;3.30;;
15476;SDS011;7840;42.702;23.296;2022-10-31T14:50:56;13.05;;;4.00;;
15476;SDS011;7840;42.702;23.296;2022-10-31T14:53:33;14.05;;;4.70;;
15476;SDS011;7840;42.702;23.296;2022-10-31T14:56:09;12.48;;;4.88;;
15476;SDS011;7840;42.702;23.296;2022-10-31T15:01:38;10.23;;;4.75;;
15476;SDS011;7840;42.702;23.296;2022-10-31T15:04:07;10.10;;;5.28;;
15476;SDS011;7840;42.702;23.296;2022-10-31T15:06:47;21.15;;;5.95;;
15476;SDS011;7840;42.702;23.296;2022-10-31T15:09:23;16.17;;;5.55;;
15476;SDS011;7840;42.702;23.296;2022-10-31T15:11:51;16.05;;;5.47;;
15476;SDS011;7840;42.702;23.296;2022-10-31T15:14:23;18.58;;;5.88;;
15476;SDS011;7840;42.702;23.296;2022-10-31T15:17:09;16.63;;;6.40;;
15476;SDS011;7840;42.702;23.296;2022-10-31T15:20:05;19.95;;;7.68;;
15476;SDS011;7840;42.702;23.296;2022-10-31T15:22:44;15.05;;;7.43;;
15476;SDS011;7840;42.702;23.296;2022-10-31T15:25:14;16.23;;;7.55;;
15476;SDS011;7840;42.702;23.296;2022-10-31T15:27:46;18.52;;;7.63;;
15476;SDS011;7840;42.702;23.296;2022-10-31T15:30:16;17.33;;;7.75;;
15476;SDS011;7840;42.702;23.296;2022-10-31T15:32:45;17.60;;;8.13;;
15476;SDS011;7840;42.702;23.296;2022-10-31T15:35:22;21.00;;;10.13;;
15476;SDS011;7840;42.702;23.296;2022-10-31T15:37:53;17.67;;;9.98;;
15476;SDS011;7840;42.702;23.296;2022-10-31T15:40:37;23.83;;;9.48;;
15476;SDS011;7840;42.702;23.296;2022-10-31T15:43:05;16.33;;;9.50;;